createdAt,value
2023-04-18T00:02:15.463Z,102351.53
2023-04-18T00:04:43.418Z,102353.13
2023-04-18T00:07:13.164Z,102354.84
2023-04-18T00:09:41.056Z,102349.50
2023-04-18T00:12:11.948Z,102350.41
2023-04-18T00:14:40.910Z,102355.72
2023-04-18T00:17:09.535Z,102350.34
2023-04-18T00:19:41.404Z,102353.06
2023-04-18T00:22:09.361Z,102354.72
2023-04-18T00:24:37.215Z,102361.66
2023-04-18T00:27:05.189Z,102358.06
2023-04-18T00:29:34.334Z,102358.06
2023-04-18T00:32:02.159Z,102364.00
2023-04-18T00:34:29.974Z,102364.91
2023-04-18T00:36:58.153Z,102365.69
2023-04-18T00:39:25.951Z,102367.41
2023-04-18T00:41:53.825Z,102364.81
2023-04-18T00:44:21.826Z,102358.56
2023-04-18T00:46:51.247Z,102351.25
2023-04-18T00:49:19.114Z,102355.72
2023-04-18T00:51:47.955Z,102348.59
2023-04-18T00:54:18.588Z,102345.09
2023-04-18T00:56:47.509Z,102351.25
2023-04-18T00:59:15.614Z,102345.00
2023-04-18T01:01:45.152Z,102343.25
2023-04-18T01:04:14.983Z,102349.44
2023-04-18T01:06:44.156Z,102348.28
2023-04-18T01:09:12.673Z,102342.84
2023-04-18T01:11:40.618Z,102330.25
2023-04-18T01:14:09.680Z,102342.75
2023-04-18T01:16:38.874Z,102340.09
2023-04-18T01:19:06.980Z,102338.34
2023-04-18T01:21:37.507Z,102340.09
2023-04-18T01:24:11.152Z,102336.44
2023-04-18T01:26:39.386Z,102333.63
2023-04-18T01:29:07.366Z,102334.41
2023-04-18T01:31:36.632Z,102330.63
2023-04-18T01:34:04.614Z,102329.53
2023-04-18T01:36:32.690Z,102333.13
2023-04-18T01:39:00.745Z,102329.47
2023-04-18T01:41:32.989Z,102327.72
2023-04-18T01:44:01.612Z,102329.47
2023-04-18T01:46:29.964Z,102322.22
2023-04-18T01:48:58.481Z,102322.19
2023-04-18T01:51:26.466Z,102322.81
2023-04-18T01:53:54.436Z,102322.94
2023-04-18T01:56:22.346Z,102328.28
2023-04-18T01:58:51.566Z,102317.66
2023-04-18T02:01:20.238Z,102319.44
2023-04-18T02:03:48.350Z,102314.09
2023-04-18T02:06:16.466Z,102314.91
2023-04-18T02:08:44.291Z,102313.06
2023-04-18T02:11:12.309Z,102319.97
2023-04-18T02:13:40.176Z,102315.25
2023-04-18T02:16:12.962Z,102314.50
2023-04-18T02:18:41.484Z,102312.59
2023-04-18T02:21:11.172Z,102317.09
2023-04-18T02:23:39.101Z,102310.88
2023-04-18T02:26:06.993Z,102321.50
2023-04-18T02:28:34.851Z,102317.81
2023-04-18T02:31:02.747Z,102311.59
2023-04-18T02:33:32.044Z,102311.59
2023-04-18T02:35:59.978Z,102318.44
2023-04-18T02:38:44.887Z,102305.81
2023-04-18T02:41:23.590Z,102305.88
2023-04-18T02:43:51.456Z,102312.03
2023-04-18T02:46:19.347Z,102307.44
2023-04-18T02:48:48.861Z,102306.34
2023-04-18T02:51:16.900Z,102308.13
2023-04-18T02:53:44.742Z,102307.19
2023-04-18T02:56:13.003Z,102309.09
2023-04-18T02:58:40.862Z,102311.69
2023-04-18T03:01:08.773Z,102308.16
2023-04-18T03:03:36.627Z,102302.72
2023-04-18T03:06:06.029Z,102300.94
2023-04-18T03:08:33.870Z,102305.31
2023-04-18T03:11:01.705Z,102305.16
2023-04-18T03:13:29.471Z,102307.13
2023-04-18T03:15:57.472Z,102307.13
2023-04-18T03:18:25.328Z,102306.28
2023-04-18T03:20:53.539Z,102307.81
2023-04-18T03:23:22.880Z,102308.66
2023-04-18T03:25:50.706Z,102303.31
2023-04-18T03:28:18.454Z,102313.09
2023-04-18T03:30:46.218Z,102311.38
2023-04-18T03:33:14.902Z,102305.97
2023-04-18T03:35:42.760Z,102306.81
2023-04-18T03:38:10.542Z,102310.44
2023-04-18T03:40:40.125Z,102312.97
2023-04-18T03:43:07.888Z,102314.72
2023-04-18T03:45:36.056Z,102316.34
2023-04-18T03:48:04.727Z,102307.47
2023-04-18T03:50:32.451Z,102323.41
2023-04-18T03:53:00.774Z,102314.53
2023-04-18T03:55:28.789Z,102316.28
2023-04-18T03:57:59.127Z,102311.72
2023-04-18T04:00:27.139Z,102317.16
2023-04-18T04:02:55.091Z,102318.06
2023-04-18T04:05:23.022Z,102317.09
2023-04-18T04:07:50.891Z,102315.13
2023-04-18T04:10:18.699Z,102317.94
2023-04-18T04:12:46.909Z,102325.19
2023-04-18T04:15:16.234Z,102327.84
2023-04-18T04:17:44.256Z,102327.00
2023-04-18T04:20:13.138Z,102327.00
2023-04-18T04:22:41.490Z,102337.59
2023-04-18T04:25:10.897Z,102334.13
2023-04-18T04:27:38.981Z,102339.56
2023-04-18T04:30:09.325Z,102339.63
2023-04-18T04:32:39.399Z,102342.22
2023-04-18T04:35:09.068Z,102345.75
2023-04-18T04:37:37.063Z,102335.91
2023-04-18T04:40:06.329Z,102343.94
2023-04-18T04:42:34.625Z,102346.59
2023-04-18T04:45:02.432Z,102344.91
2023-04-18T04:47:30.394Z,102351.22
2023-04-18T04:49:59.547Z,102344.94
2023-04-18T04:52:27.394Z,102353.88
2023-04-18T04:54:55.170Z,102354.88
2023-04-18T04:57:22.882Z,102345.19
2023-04-18T04:59:50.618Z,102356.00
2023-04-18T05:02:18.367Z,102352.31
2023-04-18T05:04:46.132Z,102356.00
2023-04-18T05:07:15.207Z,102359.75
2023-04-18T05:09:43.175Z,102358.75
2023-04-18T05:12:10.974Z,102358.03
2023-04-18T05:14:38.632Z,102365.19
2023-04-18T05:17:14.096Z,102366.03
2023-04-18T05:19:44.406Z,102368.69
2023-04-18T05:22:12.234Z,102369.69
2023-04-18T05:24:41.913Z,102365.44
2023-04-18T05:27:09.876Z,102372.59
2023-04-18T05:29:38.113Z,102369.09
2023-04-18T05:32:06.662Z,102365.69
2023-04-18T05:34:38.040Z,102368.44
2023-04-18T05:37:06.508Z,102368.63
2023-04-18T05:39:34.430Z,102370.47
2023-04-18T05:42:03.664Z,102365.28
2023-04-18T05:44:31.378Z,102375.13
2023-04-18T05:46:59.059Z,102377.91
2023-04-18T05:49:27.016Z,102376.31
2023-04-18T05:51:56.425Z,102369.41
2023-04-18T05:54:25.116Z,102376.53
2023-04-18T05:56:53.172Z,102386.69
2023-04-18T05:59:22.822Z,102380.88
2023-04-18T06:01:51.407Z,102392.59
2023-04-18T06:04:20.841Z,102396.41
2023-04-18T06:06:49.039Z,102386.56
2023-04-18T06:09:17.089Z,102388.50
2023-04-18T06:11:44.885Z,102398.41
2023-04-18T06:14:12.875Z,102395.59
2023-04-18T06:16:42.300Z,102398.28
2023-04-18T06:19:10.436Z,102409.69
2023-04-18T06:21:38.249Z,102401.66
2023-04-18T06:24:06.449Z,102412.41
2023-04-18T06:26:34.474Z,102410.59
2023-04-18T06:29:02.226Z,102412.53
2023-04-18T06:31:30.103Z,102427.72
2023-04-18T06:33:59.280Z,102427.91
2023-04-18T06:36:27.937Z,102426.09
2023-04-18T06:38:57.425Z,102416.38
2023-04-18T06:41:25.186Z,102417.25
2023-04-18T06:44:03.406Z,102419.13
2023-04-18T06:46:32.525Z,102421.00
2023-04-18T06:49:01.729Z,102426.63
2023-04-18T06:51:29.559Z,102429.56
2023-04-18T06:53:57.306Z,102423.44
2023-04-18T06:56:25.095Z,102439.81
2023-04-18T06:58:53.853Z,102436.31
2023-04-18T07:01:21.952Z,102438.09
2023-04-18T07:03:50.138Z,102442.22
2023-04-18T07:06:19.411Z,102449.28
2023-04-18T07:08:47.119Z,102449.34
2023-04-18T07:11:15.606Z,102448.44
2023-04-18T07:13:43.597Z,102455.53
2023-04-18T07:16:11.326Z,102456.56
2023-04-18T07:18:39.063Z,102457.63
2023-04-18T07:21:08.096Z,102449.59
2023-04-18T07:23:37.458Z,102451.69
2023-04-18T07:26:06.434Z,102449.13
2023-04-18T07:28:34.511Z,102450.44
2023-04-18T07:31:03.761Z,102461.19
2023-04-18T07:33:33.737Z,102456.94
2023-04-18T07:36:02.599Z,102461.47
2023-04-18T07:38:30.391Z,102457.94
2023-04-18T07:41:00.635Z,102456.94
2023-04-18T07:43:28.588Z,102461.28
2023-04-18T07:45:56.693Z,102473.72
2023-04-18T07:48:27.125Z,102468.38
2023-04-18T07:50:55.192Z,102470.09
2023-04-18T07:53:22.895Z,102464.81
2023-04-18T07:55:51.309Z,102465.78
2023-04-18T07:58:20.969Z,102473.91
2023-04-18T08:00:48.741Z,102471.38
2023-04-18T08:03:16.759Z,102476.44
2023-04-18T08:05:45.017Z,102477.34
2023-04-18T08:08:13.601Z,102476.31
2023-04-18T08:10:41.343Z,102476.31
2023-04-18T08:13:09.502Z,102481.81
2023-04-18T08:15:39.092Z,102475.53
2023-04-18T08:18:07.054Z,102479.97
2023-04-18T08:20:36.310Z,102480.88
2023-04-18T08:23:08.673Z,102485.44
2023-04-18T08:25:38.306Z,102486.38
2023-04-18T08:28:06.467Z,102482.69
2023-04-18T08:30:34.326Z,102495.00
2023-04-18T08:33:04.290Z,102491.28
2023-04-18T08:35:32.169Z,102490.41
2023-04-18T08:37:59.938Z,102494.81
2023-04-18T08:40:27.731Z,102492.34
2023-04-18T08:42:58.396Z,102482.69
2023-04-18T08:45:26.201Z,102481.00
2023-04-18T08:47:54.013Z,102484.94
2023-04-18T08:50:23.386Z,102479.78
2023-04-18T08:52:52.400Z,102486.31
2023-04-18T08:55:22.270Z,102486.56
2023-04-18T08:57:54.189Z,102489.31
2023-04-18T09:00:23.772Z,102482.06
2023-04-18T09:02:56.540Z,102482.00
2023-04-18T09:05:27.625Z,102483.91
2023-04-18T09:07:56.680Z,102491.97
2023-04-18T09:10:29.777Z,102485.69
2023-04-18T09:12:58.750Z,102491.56
2023-04-18T09:15:29.168Z,102494.16
2023-04-18T09:17:58.913Z,102493.13
2023-04-18T09:20:37.749Z,102490.53
2023-04-18T09:23:10.398Z,102497.00
2023-04-18T09:25:45.108Z,102494.34
2023-04-18T09:28:24.376Z,102486.94
2023-04-18T09:30:53.180Z,102492.47
2023-04-18T09:33:28.875Z,102497.19
2023-04-18T09:36:17.605Z,102490.00
2023-04-18T09:38:45.651Z,102493.44
2023-04-18T09:41:15.776Z,102485.41
2023-04-18T09:43:43.878Z,102486.19
2023-04-18T09:46:12.682Z,102484.41
2023-04-18T09:48:40.761Z,102485.34
2023-04-18T09:51:11.640Z,102481.91
2023-04-18T09:53:40.524Z,102480.97
2023-04-18T09:56:13.766Z,102483.59
2023-04-18T09:58:42.952Z,102484.63
2023-04-18T10:01:13.218Z,102468.66
2023-04-18T10:03:48.225Z,102476.88
2023-04-18T10:06:18.252Z,102480.47
2023-04-18T10:08:49.031Z,102481.28
2023-04-18T10:11:18.578Z,102482.31
2023-04-18T10:13:50.434Z,102471.63
2023-04-18T10:16:18.592Z,102481.50
2023-04-18T10:18:46.371Z,102480.63
2023-04-18T10:21:14.075Z,102473.47
2023-04-18T10:23:43.168Z,102469.88
2023-04-18T10:26:11.820Z,102455.00
2023-04-18T10:28:57.217Z,102462.44
2023-04-18T10:31:26.494Z,102465.41
2023-04-18T10:34:04.768Z,102458.44
2023-04-18T10:36:34.036Z,102459.28
2023-04-18T10:39:20.590Z,102454.94
2023-04-18T10:41:51.090Z,102462.91
2023-04-18T10:44:22.230Z,102459.38
2023-04-18T10:47:31.952Z,102455.88
2023-04-18T10:50:06.271Z,102454.84
2023-04-18T10:52:34.662Z,102450.41
2023-04-18T10:55:14.060Z,102449.56
2023-04-18T10:57:43.852Z,102449.53
2023-04-18T11:00:13.973Z,102447.91
2023-04-18T11:02:49.012Z,102449.75
2023-04-18T11:05:21.334Z,102446.34
2023-04-18T11:07:49.794Z,102450.91
2023-04-18T11:10:20.938Z,102444.72
2023-04-18T11:12:49.412Z,102444.81
2023-04-18T11:15:21.523Z,102442.16
2023-04-18T11:17:56.419Z,102448.53
2023-04-18T11:20:24.253Z,102448.66
2023-04-18T11:22:53.318Z,102431.69
2023-04-18T11:25:28.527Z,102437.03
2023-04-18T11:27:59.482Z,102435.25
2023-04-18T11:30:27.418Z,102432.47
2023-04-18T11:32:56.031Z,102442.31
2023-04-18T11:35:24.148Z,102433.31
2023-04-18T11:37:52.126Z,102437.81
2023-04-18T11:40:19.951Z,102432.44
2023-04-18T11:42:49.111Z,102419.88
2023-04-18T11:45:16.999Z,102419.97
2023-04-18T11:47:46.361Z,102438.78
2023-04-18T11:50:14.753Z,102432.56
2023-04-18T11:52:43.614Z,102431.69
2023-04-18T11:55:14.215Z,102427.19
2023-04-18T11:57:42.592Z,102428.97
2023-04-18T12:00:15.112Z,102431.72
2023-04-18T12:02:43.966Z,102435.34
2023-04-18T12:05:14.978Z,102434.38
2023-04-18T12:07:45.236Z,102439.75
2023-04-18T12:10:25.673Z,102443.34
2023-04-18T12:12:54.624Z,102434.34
2023-04-18T12:15:27.103Z,102440.63
2023-04-18T12:17:59.291Z,102432.66
2023-04-18T12:20:34.842Z,102433.63
2023-04-18T12:23:03.478Z,102427.34
2023-04-18T12:25:31.646Z,102429.16
2023-04-18T12:28:01.641Z,102436.34
2023-04-18T12:30:32.344Z,102430.09
2023-04-18T12:33:01.685Z,102422.03
2023-04-18T12:35:32.851Z,102423.84
2023-04-18T12:38:02.215Z,102430.13
2023-04-18T12:40:30.682Z,102423.00
2023-04-18T12:42:59.487Z,102422.09
2023-04-18T12:45:28.500Z,102425.75
2023-04-18T12:47:57.781Z,102424.78
2023-04-18T12:50:27.181Z,102428.34
2023-04-18T12:52:56.372Z,102423.00
2023-04-18T12:55:24.481Z,102417.59
2023-04-18T12:57:54.459Z,102415.88
2023-04-18T13:00:24.432Z,102423.03
2023-04-18T13:02:52.877Z,102426.63
2023-04-18T13:05:23.870Z,102427.53
2023-04-18T13:07:58.732Z,102424.84
2023-04-18T13:10:33.197Z,102424.84
2023-04-18T13:13:00.925Z,102430.22
2023-04-18T13:15:28.802Z,102423.03
2023-04-18T13:17:57.265Z,102427.53
2023-04-18T13:20:26.804Z,102426.63
2023-04-18T13:22:54.576Z,102423.94
2023-04-18T13:25:22.591Z,102425.72
2023-04-18T13:27:51.202Z,102428.38
2023-04-18T13:30:19.417Z,102419.44
2023-04-18T13:32:47.321Z,102424.81
2023-04-18T13:35:15.088Z,102422.09
2023-04-18T13:37:44.953Z,102415.81
2023-04-18T13:40:13.725Z,102422.09
2023-04-18T13:42:41.528Z,102418.53
2023-04-18T13:45:09.920Z,102417.63
2023-04-18T13:47:38.398Z,102412.25
2023-04-18T13:50:07.252Z,102414.94
2023-04-18T13:52:35.296Z,102409.56
2023-04-18T13:55:19.798Z,102404.19
2023-04-18T13:57:47.618Z,102403.28
2023-04-18T14:00:17.011Z,102409.56
2023-04-18T14:02:45.145Z,102413.16
2023-04-18T14:05:13.316Z,102411.34
2023-04-18T14:07:41.305Z,102414.00
2023-04-18T14:10:10.409Z,102404.97
2023-04-18T14:12:39.921Z,102399.50
2023-04-18T14:15:11.392Z,102398.53
2023-04-18T14:17:39.193Z,102393.13
2023-04-18T14:20:08.490Z,102395.81
2023-04-18T14:22:36.348Z,102391.34
2023-04-18T14:25:04.237Z,102390.53
2023-04-18T14:27:32.865Z,102394.19
2023-04-18T14:30:02.124Z,102397.81
2023-04-18T14:32:30.514Z,102383.47
2023-04-18T14:34:59.012Z,102380.84
2023-04-18T14:37:26.715Z,102377.25
2023-04-18T14:39:54.965Z,102384.34
2023-04-18T14:42:22.737Z,102370.91
2023-04-18T14:44:50.562Z,102364.63
2023-04-18T14:47:19.911Z,102363.72
2023-04-18T14:49:47.627Z,102357.38
2023-04-18T14:52:15.437Z,102368.13
2023-04-18T14:54:43.962Z,102373.44
2023-04-18T14:57:12.917Z,102368.88
2023-04-18T14:59:40.631Z,102359.00
2023-04-18T15:02:08.478Z,102359.84
2023-04-18T15:04:37.873Z,102364.47
2023-04-18T15:07:06.260Z,102359.03
2023-04-18T15:09:37.305Z,102348.22
2023-04-18T15:12:05.798Z,102345.38
2023-04-18T15:14:34.395Z,102345.28
2023-04-18T15:17:02.934Z,102349.69
2023-04-18T15:19:32.179Z,102354.22
2023-04-18T15:22:01.647Z,102357.03
2023-04-18T15:24:29.663Z,102357.06
2023-04-18T15:26:58.764Z,102350.81
2023-04-18T15:29:28.649Z,102349.13
2023-04-18T15:31:56.525Z,102354.53
2023-04-18T15:34:24.271Z,102355.50
2023-04-18T15:36:52.137Z,102357.31
2023-04-18T15:39:23.452Z,102349.19
2023-04-18T15:41:54.633Z,102344.66
2023-04-18T15:44:22.459Z,102344.59
2023-04-18T15:46:51.145Z,102345.47
2023-04-18T15:49:18.939Z,102345.50
2023-04-18T15:51:46.697Z,102344.63
2023-04-18T15:54:14.653Z,102343.78
2023-04-18T15:56:44.756Z,102348.31
2023-04-18T15:59:13.257Z,102343.91
2023-04-18T16:01:41.075Z,102347.56
2023-04-18T16:04:09.189Z,102345.75
2023-04-18T16:06:37.485Z,102332.38
2023-04-18T16:09:06.855Z,102346.75
2023-04-18T16:11:34.669Z,102335.09
2023-04-18T16:14:03.894Z,102335.94
2023-04-18T16:16:31.747Z,102331.44
2023-04-18T16:19:02.106Z,102334.13
2023-04-18T16:21:29.994Z,102332.31
2023-04-18T16:23:57.796Z,102330.50
2023-04-18T16:26:26.022Z,102343.94
2023-04-18T16:28:53.884Z,102339.47
2023-04-18T16:31:23.104Z,102349.41
2023-04-18T16:33:52.533Z,102340.50
2023-04-18T16:36:20.643Z,102336.91
2023-04-18T16:38:48.568Z,102339.56
2023-04-18T16:41:16.524Z,102332.41
2023-04-18T16:43:44.637Z,102347.66
2023-04-18T16:46:13.837Z,102338.66
2023-04-18T16:48:45.060Z,102339.56
2023-04-18T16:51:13.168Z,102337.78
2023-04-18T16:53:41.033Z,102343.19
2023-04-18T16:56:09.303Z,102341.38
2023-04-18T16:58:37.102Z,102343.22
2023-04-18T17:01:04.854Z,102343.22
2023-04-18T17:03:32.641Z,102337.81
2023-04-18T17:06:02.219Z,102336.91
2023-04-18T17:08:31.956Z,102338.69
2023-04-18T17:11:02.242Z,102347.69
2023-04-18T17:13:31.476Z,102345.00
2023-04-18T17:15:59.350Z,102346.78
2023-04-18T17:18:33.941Z,102342.34
2023-04-18T17:21:22.689Z,102338.75
2023-04-18T17:23:50.489Z,102352.19
2023-04-18T17:26:18.864Z,102343.25
2023-04-18T17:28:46.782Z,102336.09
2023-04-18T17:31:17.447Z,102348.63
2023-04-18T17:33:46.278Z,102345.91
2023-04-18T17:36:16.043Z,102336.03
2023-04-18T17:38:48.879Z,102353.06
2023-04-18T17:41:17.604Z,102341.41
2023-04-18T17:43:46.587Z,102340.50
2023-04-18T17:46:15.099Z,102344.09
2023-04-18T17:48:43.040Z,102351.25
2023-04-18T17:51:10.827Z,102355.72
2023-04-18T17:53:39.937Z,102355.72
2023-04-18T17:56:07.655Z,102359.28
2023-04-18T17:58:35.594Z,102354.81
2023-04-18T18:01:15.052Z,102366.47
2023-04-18T18:03:44.900Z,102363.75
2023-04-18T18:06:13.930Z,102364.63
2023-04-18T18:08:44.166Z,102371.78
2023-04-18T18:11:12.072Z,102380.72
2023-04-18T18:13:40.204Z,102373.53
2023-04-18T18:16:09.114Z,102378.91
2023-04-18T18:18:39.759Z,102381.53
2023-04-18T18:21:07.564Z,102384.22
2023-04-18T18:23:35.409Z,102379.75
2023-04-18T18:26:06.588Z,102383.25
2023-04-18T18:28:34.508Z,102389.50
2023-04-18T18:31:02.512Z,102388.59
2023-04-18T18:33:30.608Z,102383.22
2023-04-18T18:35:58.721Z,102389.47
2023-04-18T18:38:26.662Z,102386.78
2023-04-18T18:40:56.200Z,102394.78
2023-04-18T18:43:26.305Z,102397.41
2023-04-18T18:45:54.956Z,102397.34
2023-04-18T18:48:23.118Z,102405.34
2023-04-18T18:50:51.365Z,102405.31
2023-04-18T18:53:19.200Z,102402.63
2023-04-18T18:55:46.929Z,102417.69
2023-04-18T18:58:14.780Z,102411.47
2023-04-18T19:00:43.897Z,102413.28
2023-04-18T19:03:12.527Z,102422.19
2023-04-18T19:05:40.749Z,102425.72
2023-04-18T19:08:11.244Z,102432.84
2023-04-18T19:10:39.131Z,102424.78
2023-04-18T19:13:06.849Z,102430.09
2023-04-18T19:15:34.778Z,102428.28
2023-04-18T19:18:04.081Z,102433.66
2023-04-18T19:20:31.871Z,102429.16
2023-04-18T19:22:59.622Z,102439.03
2023-04-18T19:25:27.384Z,102439.84
2023-04-18T19:27:55.356Z,102438.03
2023-04-18T19:30:23.265Z,102440.72
2023-04-18T19:32:51.093Z,102437.09
2023-04-18T19:35:21.632Z,102445.13
2023-04-18T19:37:49.349Z,102435.25
2023-04-18T19:40:17.351Z,102445.97
2023-04-18T19:42:46.063Z,102444.19
2023-04-18T19:45:15.092Z,102447.72
2023-04-18T19:47:44.228Z,102445.97
2023-04-18T19:50:12.455Z,102441.47
2023-04-18T19:52:41.776Z,102451.25
2023-04-18T19:55:10.523Z,102448.56
2023-04-18T19:57:41.285Z,102444.09
2023-04-18T20:00:11.497Z,102446.66
2023-04-18T20:02:39.988Z,102451.13
2023-04-18T20:05:09.641Z,102452.03
2023-04-18T20:07:42.998Z,102450.13
2023-04-18T20:10:11.346Z,102455.47
2023-04-18T20:12:40.541Z,102450.94
2023-04-18T20:15:12.497Z,102458.03
2023-04-18T20:17:40.270Z,102459.78
2023-04-18T20:20:10.963Z,102458.91
2023-04-18T20:22:40.303Z,102457.13
2023-04-18T20:25:10.020Z,102457.09
2023-04-18T20:27:37.894Z,102455.25
2023-04-18T20:30:07.141Z,102466.84
2023-04-18T20:32:34.965Z,102465.09
2023-04-18T20:35:04.406Z,102468.63
2023-04-18T20:37:36.613Z,102473.03
2023-04-18T20:40:07.974Z,102474.84
2023-04-18T20:42:39.086Z,102471.16
2023-04-18T20:45:40.359Z,102479.13
2023-04-18T20:48:09.509Z,102478.22
2023-04-18T20:50:40.280Z,102491.56
2023-04-18T20:53:08.709Z,102484.38
2023-04-18T20:55:36.535Z,102490.59
2023-04-18T20:58:05.577Z,102486.13
2023-04-18T21:00:33.321Z,102491.44
2023-04-18T21:03:02.129Z,102492.38
2023-04-18T21:05:30.038Z,102485.31
2023-04-18T21:07:59.582Z,102486.22
2023-04-18T21:10:27.308Z,102497.84
2023-04-18T21:12:55.284Z,102494.31
2023-04-18T21:15:24.475Z,102490.75
2023-04-18T21:17:52.298Z,102494.31
2023-04-18T21:20:20.487Z,102489.88
2023-04-18T21:22:48.281Z,102491.78
2023-04-18T21:25:16.454Z,102497.13
2023-04-18T21:27:44.133Z,102487.31
2023-04-18T21:30:12.432Z,102497.13
2023-04-18T21:32:41.522Z,102488.22
2023-04-18T21:35:09.985Z,102486.41
2023-04-18T21:37:37.627Z,102482.00
2023-04-18T21:40:06.408Z,102496.28
2023-04-18T21:42:35.088Z,102484.75
2023-04-18T21:45:02.848Z,102491.91
2023-04-18T21:47:30.685Z,102499.94
2023-04-18T21:49:59.782Z,102490.97
2023-04-18T21:52:27.480Z,102491.78
2023-04-18T21:54:55.180Z,102484.69
2023-04-18T21:57:22.940Z,102495.47
2023-04-18T21:59:50.594Z,102486.53
2023-04-18T22:02:18.452Z,102484.69
2023-04-18T22:04:48.058Z,102489.19
2023-04-18T22:07:18.768Z,102482.91
2023-04-18T22:09:46.891Z,102494.59
2023-04-18T22:12:15.742Z,102486.53
2023-04-18T22:14:48.109Z,102480.25
2023-04-18T22:17:15.852Z,102487.44
2023-04-18T22:19:44.922Z,102491.94
2023-04-18T22:22:12.636Z,102485.63
2023-04-18T22:24:41.675Z,102493.75
2023-04-18T22:27:09.391Z,102494.59
2023-04-18T22:29:37.067Z,102488.38
2023-04-18T22:32:04.810Z,102493.75
2023-04-18T22:34:32.463Z,102490.13
2023-04-18T22:37:00.245Z,102494.59
2023-04-18T22:39:28.018Z,102491.97
2023-04-18T22:42:12.783Z,102496.44
2023-04-18T22:44:40.458Z,102492.00
2023-04-18T22:47:08.512Z,102489.31
2023-04-18T22:49:36.164Z,102499.19
2023-04-18T22:52:04.074Z,102493.81
2023-04-18T22:54:31.765Z,102495.63
2023-04-18T22:56:59.461Z,102492.03
2023-04-18T22:59:28.532Z,102492.03
2023-04-18T23:01:56.455Z,102494.72
2023-04-18T23:04:24.452Z,102493.84
2023-04-18T23:06:52.247Z,102493.84
2023-04-18T23:09:20.012Z,102491.97
2023-04-18T23:11:47.700Z,102494.66
2023-04-18T23:14:15.696Z,102487.56
2023-04-18T23:16:44.962Z,102495.59
2023-04-18T23:19:12.628Z,102488.44
2023-04-18T23:21:40.474Z,102485.69
2023-04-18T23:24:08.747Z,102488.31
2023-04-18T23:26:36.472Z,102483.94
2023-04-18T23:29:04.239Z,102476.84
2023-04-18T23:31:32.763Z,102481.28
2023-04-18T23:34:02.012Z,102486.66
2023-04-18T23:36:29.784Z,102480.41
2023-04-18T23:38:57.479Z,102486.69
2023-04-18T23:41:25.152Z,102485.81
2023-04-18T23:43:52.855Z,102479.53
2023-04-18T23:46:20.606Z,102480.44
2023-04-18T23:48:48.399Z,102481.31
2023-04-18T23:51:17.520Z,102477.69
2023-04-18T23:53:45.292Z,102475.03
2023-04-18T23:56:13.066Z,102478.63
2023-04-18T23:58:41.069Z,102475.91
